Islamorada, FL

11:45 AM EDT on October 30, 2014 (GMT -0400)
Keith & Patty's Islamorada Weather | Change Station
CLOSE
Current Station
Personal Weather Station
Location: Islamorada, FL
Elevation: 5 ft
Nearby Weather Stations

Elev 5 ft 24.92 °N, 80.63 °W | Updated 19 seconds ago

Clear
Clear
82.8 °F
Feels Like 87 °F
N
2.0
Wind Variable Wind from NNW
Gusts 2.0 mph

Today
High -- | Low -- °F
--% Chance of Precip.
Yesterday
High -- | Low -- °F
Precip. -- in
7:28 AM 6:43 PM
Waxing Crescent, 45% visible
Pressure 29.99 in
Visibility 10.0 miles
Clouds Clear
Heat Index 87 °F
Dew Point 70 °F
Humidity 65%
Rainfall 0.00 in
Snow Depth Not available.
UV 6 out of 12
Pollen 3.00 out of 12
Air Quality Not available.
Flu Activity Not available.
METAR KHST 301458Z AUTO 21001KT 10SM CLR 27/19 A2998 RMK AO2 DZB1359E1400 SLP155 P0000 60000 T02660189 50004

More Conditions Fewer Conditions

Pressure 29.99 in
Visibility 10.0 miles
Clouds Clear
Heat Index 87 °F
Dew Point 70 °F
Humidity 65%
Rainfall 0.00 in
Snow Depth Not available.
UV 6 out of 12
Pollen 3.00 out of 12
Air Quality Not available.
Flu Activity Not available.
METAR KHST 301458Z AUTO 21001KT 10SM CLR 27/19 A2998 RMK AO2 DZB1359E1400 SLP155 P0000 60000 T02660189 50004

More Conditions Fewer Conditions

10-Day Weather Forecast

Almanac

Astronomy

Oct. 30, 2014 Rise Set
Actual Time
Civil Twilight
Nautical Twilight
Astronomical Twilight
Moon
Length of Visible Light
Length of Day
Tomorrow will be .
, % of the Moon is Illuminated

Today's Extremes

State Highs State Lows

Community

WunderPhotos

Upload Photos

1,766,389 photos uploaded!

WunderBlogs® & News

Nearby

Air Quality

  Air Quality AQ Index Pollutant
Not available.

Snow Depth

Station Depth Elevation

Earthquake Activity

City Distance Mag. Time & Date
Minimum magnitude displayed is 2.5.

Coastal Water Temperatures

Place Temperature

Nearby Weather Stations